Aérodrome :
LOGIN :

S'inscrire | Disclaimer

   EN    FR    IT 

 










Légende :    VFR   VFR Marginal   IFR   IFR Intensif   IFR Très Intensif
Visi : 
Plafond : 
>= 8 km
>= 3000ft
5 à 8 km
1000 à 3000 ft
1500m à 5 km
500 à 1000 ft
800 à 1500m
200 à 500 ft
< 800m
< 200 ft
Symboles :   Orages  Brouillard  Fortes neiges  Fortes précipitations  Vent > 20 kt
SIGMETs :   Divers  Orages  Givrage  Turbulence  Onde Orograph.  Cendres Volcan.






- Altitude de l'aérodrome : 313 ft
- Code IATA : LEH


LFOH - Le Havre Octeville

DERNIER METAR :
  • 231300Z AUTO 25024G35KT 9999 OVC011 12/10 Q1021 TEMPO 2000 RADZ OVC004

METARs EXPIRÉS :
  • 231230Z AUTO 25022KT 9999 OVC011 11/10 Q1021 TEMPO 2000 RADZ OVC004 BECMG 25025G35KT
  • 231200Z AUTO 25024G35KT 9999 OVC011 12/10 Q1022 TEMPO 2000 RADZ OVC004
  • 231130Z AUTO 25023KT 9999 OVC011 11/10 Q1022 TEMPO 1500 RADZ OVC002 BECMG 22025G35KT
  • 231100Z AUTO 26029KT 9999 OVC010 11/10 Q1021 TEMPO 1500 RADZ OVC002 BECMG 22025G35KT
  • 231030Z AUTO 25022KT 9999 OVC011 11/10 Q1022 TEMPO 1500 RADZ OVC002 BECMG 22025G35KT

TAF TAF LFOH
Valide du 23 à 12h jusqu'au 24 à 12h UTC


231100Z 2312/2412 25025G35KT 9999 OVC013
TEMPO 2312/2319 2000 RADZ OVC004
FM231900 28012KT 9999 BKN025
BECMG 2321/2323 22012KT OVC013
TEMPO 2323/2409 2000 DZRA OVC004
BECMG 2409/2412 23020G30KT
ATIS : +33 2 35 54 64 93



MET'MAP, la Météo Aéronautique d'un coup d'oeil ! - Copyright ORBIFLY Décembre 2007 - Disclaimer

ORBIFLY MET'MAP TEAM :

Programmation & Développement : Alexandra Zaïnal
Sur une idée originale de : Baudouin d'Aumeries
Assistance à la programmation : Marc-Olivier Méhu
Soutien technique & logistique : Manuel Goepfert

Contact : metmap@orbifly.com




SOURCES & CREDITS :

   NOAA